Time;durP1;ratioP1;P1;durP2;ratioP2;P2;SDS_P1;SDS_P2;PMS_P1;PMS_P2;Temp;Humidity;BMP_temperature;BMP_pressure;BME280_temperature;BME280_humidity;BME280_pressure;Samples;Min_cycle;Max_cycle;Signal;HPM_P1;HPM_P2
2021/12/04 00:02:48;;;;;;;1.42;1.27;;;;;;;22.52;34.00;99074.62;1890428;75;28205;-58
2021/12/04 00:05:40;;;;;;;1.65;1.30;;;;;;;22.53;34.00;99057.11;1877777;75;28106;-57
2021/12/04 00:08:32;;;;;;;1.37;1.30;;;;;;;22.53;33.99;99056.58;1878644;75;28161;-55
2021/12/04 00:11:19;;;;;;;1.25;1.20;;;;;;;22.51;34.02;99045.58;1885983;75;28051;-56
2021/12/04 00:14:09;;;;;;;1.42;1.32;;;;;;;22.48;34.08;99040.05;1882353;75;28005;-56
2021/12/04 00:16:58;;;;;;;1.90;1.37;;;;;;;22.50;34.07;99035.69;1861009;75;28150;-60
2021/12/04 00:19:47;;;;;;;1.50;1.30;;;;;;;22.50;34.07;99030.22;1866570;75;28221;-60
2021/12/04 00:22:36;;;;;;;1.37;1.22;;;;;;;22.49;34.03;99031.31;1867148;75;28095;-61
2021/12/04 00:25:27;;;;;;;2.12;1.40;;;;;;;22.48;33.99;99034.58;1881015;75;28199;-61
2021/12/04 00:28:16;;;;;;;1.45;1.35;;;;;;;22.51;33.95;99029.99;1858375;75;28215;-61
2021/12/04 00:31:12;;;;;;;1.65;1.20;;;;;;;22.53;33.91;99027.00;1869397;75;28129;-62
2021/12/04 00:33:57;;;;;;;1.20;1.10;;;;;;;22.51;33.91;99026.42;1869177;75;28104;-62
2021/12/04 00:49:10;;;;;;;1.42;1.32;;;;;;;22.46;34.10;99004.42;1892709;75;28153;-59
2021/12/04 00:51:58;;;;;;;1.27;1.20;;;;;;;22.46;34.11;99003.89;1863573;75;28123;-60
2021/12/04 00:54:47;;;;;;;1.30;1.30;;;;;;;22.46;34.08;99002.52;1876364;75;28105;-61
2021/12/04 00:57:35;;;;;;;2.30;1.40;;;;;;;22.47;34.05;99000.09;1888524;75;28178;-59
2021/12/04 01:00:24;;;;;;;1.17;1.17;;;;;;;22.46;34.08;99004.42;1861638;75;28170;-59
2021/12/04 01:03:13;;;;;;;1.30;1.20;;;;;;;22.49;34.07;98997.09;1871726;75;28149;-59
2021/12/04 01:06:03;;;;;;;2.00;1.30;;;;;;;22.47;34.05;98988.31;1873181;75;28198;-59
2021/12/04 01:08:51;;;;;;;1.97;1.23;;;;;;;22.48;34.10;98989.95;1878854;75;28194;-59
2021/12/04 01:11:41;;;;;;;1.25;1.10;;;;;;;22.47;34.13;98993.78;1873767;75;28059;-60
2021/12/04 01:14:31;;;;;;;1.60;1.15;;;;;;;22.46;34.13;98979.79;1880655;75;28114;-60
2021/12/04 01:17:20;;;;;;;1.42;1.32;;;;;;;22.46;34.17;98979.79;1874224;75;30057;-57
2021/12/04 01:20:09;;;;;;;1.20;1.20;;;;;;;22.46;34.14;98971.05;1870329;75;28098;-59
2021/12/04 01:22:58;;;;;;;1.07;1.07;;;;;;;22.46;34.08;98962.00;1870477;75;28226;-59
2021/12/04 01:25:47;;;;;;;1.85;1.37;;;;;;;22.45;34.14;98961.73;1890106;75;28258;-57
2021/12/04 01:28:35;;;;;;;1.52;1.42;;;;;;;22.42;34.16;98962.21;1867700;75;28101;-59
2021/12/04 01:31:25;;;;;;;2.02;1.30;;;;;;;22.43;34.09;98966.59;1871269;75;28116;-58
2021/12/04 01:34:16;;;;;;;2.17;1.27;;;;;;;22.40;34.15;98972.58;1878233;75;28096;-59
2021/12/04 01:37:07;;;;;;;1.67;1.12;;;;;;;22.37;34.13;98967.59;1887979;75;28153;-61
2021/12/04 01:39:56;;;;;;;2.47;1.50;;;;;;;22.35;34.17;98967.01;1884707;75;28376;-60
2021/12/04 01:42:47;;;;;;;1.30;1.20;;;;;;;22.34;34.16;98959.86;1868420;75;28056;-61
2021/12/04 01:45:35;;;;;;;1.40;1.20;;;;;;;22.34;34.18;98952.48;1884004;74;28146;-58
2021/12/04 01:48:26;;;;;;;1.45;1.17;;;;;;;22.30;34.22;98943.12;1890600;75;28081;-61
2021/12/04 01:51:15;;;;;;;1.40;1.30;;;;;;;22.30;34.24;98953.23;1886052;75;28055;-60
2021/12/04 01:54:04;;;;;;;1.15;1.12;;;;;;;22.29;34.26;98957.86;1867822;75;28078;-61
2021/12/04 01:56:53;;;;;;;1.30;1.20;;;;;;;22.29;34.30;98955.13;1867836;75;28199;-60
2021/12/04 01:59:42;;;;;;;1.10;1.10;;;;;;;22.26;34.29;98952.91;1886457;75;28104;-58
2021/12/04 02:02:32;;;;;;;1.40;1.30;;;;;;;22.30;34.31;98955.97;1877484;75;38327;-57
2021/12/04 02:05:20;;;;;;;1.72;1.20;;;;;;;22.28;34.30;98937.06;1859403;75;28159;-59
2021/12/04 02:08:11;;;;;;;1.90;1.37;;;;;;;22.27;34.30;98945.50;1872298;75;28167;-60
2021/12/04 02:11:01;;;;;;;1.30;1.20;;;;;;;22.27;34.32;98929.09;1867164;75;38502;-58
2021/12/04 02:13:49;;;;;;;1.80;1.20;;;;;;;22.25;34.34;98930.71;1879659;75;28094;-59
2021/12/04 02:16:38;;;;;;;1.45;1.10;;;;;;;22.24;34.40;98927.66;1864706;75;28159;-55
2021/12/04 02:19:29;;;;;;;1.42;1.32;;;;;;;22.24;34.36;98931.77;1878757;75;28159;-59
2021/12/04 02:22:19;;;;;;;1.37;1.20;;;;;;;22.23;34.42;98922.45;1890392;75;28067;-58
2021/12/04 02:25:09;;;;;;;1.15;1.05;;;;;;;22.23;34.42;98913.71;1859243;75;28244;-59
2021/12/04 02:28:00;;;;;;;1.17;1.17;;;;;;;22.25;34.42;98910.19;1869472;75;28094;-60
2021/12/04 02:30:49;;;;;;;1.10;1.10;;;;;;;22.26;34.42;98904.19;1890849;75;28091;-60
2021/12/04 02:33:39;;;;;;;1.20;1.20;;;;;;;22.23;34.46;98900.56;1889662;75;27992;-58
2021/12/04 02:36:28;;;;;;;1.47;1.22;;;;;;;22.24;34.48;98898.13;1891800;75;28013;-58
2021/12/04 02:39:31;;;;;;;1.30;1.20;;;;;;;22.24;34.46;98892.09;1858079;75;28177;-58
2021/12/04 02:42:25;;;;;;;1.50;1.10;;;;;;;22.27;34.49;98886.67;1870782;75;28164;-57
2021/12/04 02:45:16;;;;;;;1.10;1.10;;;;;;;22.26;34.48;98881.77;1862729;75;28177;-60
2021/12/04 02:48:05;;;;;;;1.20;1.20;;;;;;;22.25;34.47;98884.20;1880620;74;28226;-55
2021/12/04 02:50:54;;;;;;;1.27;1.22;;;;;;;22.24;34.47;98886.63;1878513;74;28161;-58
2021/12/04 02:53:43;;;;;;;1.30;1.20;;;;;;;22.27;34.49;98866.16;1890257;74;28089;-58
2021/12/04 02:56:32;;;;;;;1.27;1.10;;;;;;;22.26;34.51;98857.67;1900702;74;28086;-58
2021/12/04 02:59:21;;;;;;;1.27;1.17;;;;;;;22.27;34.49;98851.11;1894417;74;28081;-57
2021/12/04 03:02:21;;;;;;;1.30;1.20;;;;;;;22.27;34.48;98849.21;1883478;74;28130;-58
2021/12/04 03:05:09;;;;;;;1.10;1.10;;;;;;;22.26;34.49;98850.30;1906766;74;28662;-58
2021/12/04 03:08:03;;;;;;;1.57;1.00;;;;;;;22.26;34.52;98836.63;1889331;74;28956;-58
2021/12/04 03:10:51;;;;;;;1.10;1.10;;;;;;;22.27;34.49;98827.86;1886932;74;28145;-58
2021/12/04 03:13:40;;;;;;;1.20;1.10;;;;;;;22.30;34.46;98841.88;1891017;74;28001;-56
2021/12/04 03:16:31;;;;;;;3.65;1.27;;;;;;;22.29;34.49;98827.90;1903796;74;28257;-60
2021/12/04 03:19:19;;;;;;;1.03;1.03;;;;;;;22.29;34.49;98813.38;1887054;74;28169;-58
2021/12/04 03:22:08;;;;;;;1.35;1.25;;;;;;;22.31;34.44;98823.56;1905625;74;38422;-58
2021/12/04 03:24:58;;;;;;;1.35;1.05;;;;;;;22.33;34.47;98807.20;1889991;74;28176;-58
2021/12/04 03:27:49;;;;;;;1.02;1.02;;;;;;;22.33;34.46;98808.56;1906861;74;28132;-56
2021/12/04 03:30:54;;;;;;;1.00;1.00;;;;;;;22.35;34.41;98805.56;1900264;74;28044;-61
2021/12/04 03:42:40;;;;;;;1.00;1.00;;;;;;;22.33;34.52;98813.20;1887424;74;28036;-58
2021/12/04 03:45:29;;;;;;;1.22;1.17;;;;;;;22.34;34.54;98797.05;1889020;74;28162;-59
2021/12/04 03:51:23;;;;;;;1.30;1.20;;;;;;;22.36;34.49;98792.99;1857404;75;28091;-61
2021/12/04 03:54:11;;;;;;;1.37;1.12;;;;;;;22.36;34.47;98779.84;1861631;75;28156;-61
2021/12/04 03:57:06;;;;;;;1.70;1.20;;;;;;;22.37;34.53;98787.82;1891901;75;28881;-61
2021/12/04 03:59:54;;;;;;;1.10;1.10;;;;;;;22.39;34.51;98772.52;1858190;75;28102;-61
2021/12/04 04:02:42;;;;;;;1.20;1.10;;;;;;;22.39;34.50;98780.19;1886427;75;28080;-61
2021/12/04 04:05:31;;;;;;;1.10;1.00;;;;;;;22.41;34.54;98773.08;1898455;75;28020;-58
2021/12/04 04:08:20;;;;;;;2.35;1.20;;;;;;;22.41;34.50;98773.08;1867616;75;28126;-58
2021/12/04 04:11:09;;;;;;;1.10;1.10;;;;;;;22.43;34.49;98766.81;1886553;75;28021;-61
2021/12/04 04:13:57;;;;;;;2.10;1.00;;;;;;;22.41;34.48;98764.34;1868833;75;28083;-61
2021/12/04 04:16:46;;;;;;;1.07;1.07;;;;;;;22.45;34.49;98770.16;1880240;75;28093;-58
2021/12/04 04:19:35;;;;;;;1.12;1.12;;;;;;;22.43;34.48;98752.60;1893681;75;28093;-59
2021/12/04 04:22:23;;;;;;;1.10;1.10;;;;;;;22.43;34.49;98765.45;1883008;75;28160;-61
2021/12/04 04:25:13;;;;;;;1.00;1.00;;;;;;;22.44;34.50;98754.27;1858433;75;28201;-59
2021/12/04 04:28:02;;;;;;;1.17;1.10;;;;;;;22.47;34.45;98763.89;1882264;75;28074;-61
2021/12/04 04:30:51;;;;;;;1.20;1.10;;;;;;;22.48;34.48;98761.42;1867652;75;28203;-61
2021/12/04 04:33:43;;;;;;;1.02;0.93;;;;;;;22.50;34.44;98742.84;1880999;75;28134;-58
2021/12/04 05:00:38;;;;;;;1.02;1.02;;;;;;;22.47;34.51;98717.37;1838489;77;28190;-58
2021/12/04 05:12:54;;;;;;;0.90;0.90;;;;;;;22.49;34.50;98689.20;1905519;74;27989;-59
2021/12/04 05:18:52;;;;;;;1.20;1.10;;;;;;;22.50;34.50;98708.09;1917467;74;28122;-59
2021/12/04 05:21:34;;;;;;;1.00;1.00;;;;;;;22.49;34.53;98700.15;1890122;74;28155;-56
2021/12/04 05:24:24;;;;;;;2.70;1.10;;;;;;;22.51;34.52;98708.93;1906204;74;28077;-57
2021/12/04 05:27:13;;;;;;;1.13;1.07;;;;;;;22.52;34.53;98702.39;1890285;74;28185;-58
2021/12/04 05:30:03;;;;;;;0.80;0.80;;;;;;;22.52;34.52;98695.55;1900161;74;28094;-57
2021/12/04 05:32:52;;;;;;;1.00;1.00;;;;;;;22.53;34.52;98696.65;1896837;74;28047;-56
2021/12/04 05:35:40;;;;;;;0.93;0.93;;;;;;;22.53;34.47;98693.08;1895538;74;28126;-58
2021/12/04 05:38:29;;;;;;;1.00;1.00;;;;;;;22.53;34.49;98691.17;1903149;74;28114;-58
2021/12/04 05:41:17;;;;;;;0.90;0.90;;;;;;;22.54;34.47;98692.81;1895945;74;32053;-57
2021/12/04 05:44:09;;;;;;;1.00;1.00;;;;;;;22.57;34.43;98684.64;1914936;74;27983;-59
2021/12/04 05:47:11;;;;;;;1.00;1.00;;;;;;;22.56;34.42;98686.58;1903515;74;28001;-58
2021/12/04 05:50:13;;;;;;;1.83;1.10;;;;;;;22.58;34.43;98680.83;1895582;74;28044;-56
2021/12/04 05:53:04;;;;;;;1.75;1.00;;;;;;;22.58;34.43;98675.36;1906277;74;28176;-59
2021/12/04 05:56:02;;;;;;;0.90;0.90;;;;;;;22.56;34.50;98658.37;1906674;74;28077;-57
2021/12/04 05:58:33;;;;;;;1.00;1.00;;;;;;;22.54;34.50;98673.66;1906453;74;28117;-61
2021/12/04 06:01:22;;;;;;;1.20;1.10;;;;;;;22.56;34.49;98659.73;1907368;74;28363;-58
2021/12/04 06:04:11;;;;;;;1.00;1.00;;;;;;;22.56;34.49;98660.57;1891528;74;28078;-57
2021/12/04 06:06:59;;;;;;;1.25;1.20;;;;;;;22.55;34.52;98658.90;1898524;74;28111;-58
2021/12/04 06:09:48;;;;;;;1.00;1.00;;;;;;;22.58;34.51;98657.56;1895726;74;28105;-58
2021/12/04 06:12:36;;;;;;;1.82;1.00;;;;;;;22.56;34.53;98661.11;1887503;74;28121;-58
2021/12/04 06:15:25;;;;;;;1.00;1.00;;;;;;;22.58;34.53;98667.15;1906759;74;28173;-58
2021/12/04 06:18:15;;;;;;;1.02;1.02;;;;;;;22.55;34.54;98658.90;1894808;74;28133;-60
2021/12/04 06:24:10;;;;;;;0.90;0.90;;;;;;;22.57;34.55;98656.73;1834990;77;28434;-56
2021/12/04 06:27:00;;;;;;;0.93;0.93;;;;;;;22.57;34.55;98661.38;1823386;77;28250;-60
2021/12/04 06:29:48;;;;;;;1.17;1.12;;;;;;;22.57;34.54;98657.27;1840270;76;28629;-59
2021/12/04 06:32:38;;;;;;;1.00;1.00;;;;;;;22.57;34.54;98661.38;1832762;77;28299;-60
2021/12/04 06:35:26;;;;;;;1.00;1.00;;;;;;;22.57;34.56;98661.38;1824891;77;28250;-56
2021/12/04 06:38:17;;;;;;;1.00;1.00;;;;;;;22.56;34.56;98649.63;1845114;77;28225;-58
2021/12/04 06:41:07;;;;;;;1.00;1.00;;;;;;;22.56;34.58;98645.52;1832759;77;28284;-58
2021/12/04 06:43:56;;;;;;;1.17;1.10;;;;;;;22.56;34.59;98631.83;1821266;77;28218;-57
2021/12/04 06:46:45;;;;;;;1.00;1.00;;;;;;;22.56;34.60;98631.83;1832987;77;28246;-58
2021/12/04 06:49:37;;;;;;;1.37;1.00;;;;;;;22.58;34.57;98624.72;1822981;77;28337;-60
2021/12/04 06:52:26;;;;;;;1.10;1.10;;;;;;;22.60;34.58;98624.79;1834334;77;28252;-58
2021/12/04 06:55:15;;;;;;;1.02;0.98;;;;;;;22.60;34.51;98612.97;1880695;75;28009;-59
2021/12/04 06:58:04;;;;;;;1.10;1.10;;;;;;;22.58;34.53;98613.77;1870950;75;28042;-59
2021/12/04 07:00:56;;;;;;;1.22;1.00;;;;;;;22.58;34.54;98606.93;1876489;75;28193;-59
2021/12/04 07:03:44;;;;;;;1.00;1.00;;;;;;;22.58;34.59;98614.61;1890850;75;28558;-59
2021/12/04 07:06:35;;;;;;;1.02;1.02;;;;;;;22.57;34.56;98605.27;1891187;75;28184;-56
2021/12/04 07:09:23;;;;;;;2.33;1.07;;;;;;;22.56;34.55;98601.72;1877454;75;28074;-59
2021/12/04 07:12:13;;;;;;;1.40;1.00;;;;;;;22.61;34.52;98600.98;1879292;75;28103;-59
2021/12/04 07:15:02;;;;;;;0.90;0.90;;;;;;;22.59;34.50;98612.70;1878912;75;28141;-59
2021/12/04 07:17:51;;;;;;;1.00;1.00;;;;;;;22.60;34.82;98600.16;1856405;75;28145;-60
2021/12/04 07:20:40;;;;;;;1.00;1.00;;;;;;;22.60;34.82;98600.16;1882594;75;28019;-59
2021/12/04 07:23:27;;;;;;;1.00;1.00;;;;;;;;;;1868764;75;28128;-58
2021/12/04 07:26:15;;;;;;;1.40;0.90;;;;;;;22.58;34.43;98591.34;1867025;75;28143;-56
2021/12/04 07:29:04;;;;;;;1.10;1.00;;;;;;;22.63;34.41;98591.97;1887827;75;28085;-59
2021/12/04 07:31:54;;;;;;;1.00;1.00;;;;;;;22.58;34.45;98585.03;1866986;75;28211;-56
2021/12/04 07:34:43;;;;;;;1.67;1.57;;;;;;;22.57;34.38;98584.73;1885852;75;28076;-55
2021/12/04 07:37:32;;;;;;;3.12;2.92;;;;;;;22.51;32.95;98578.93;1872387;74;28120;-56
2021/12/04 07:40:21;;;;;;;2.60;2.40;;;;;;;21.83;30.92;98573.37;1861449;75;28202;-56
2021/12/04 07:43:11;;;;;;;2.33;2.20;;;;;;;21.68;31.63;98562.20;1869472;75;28079;-53
2021/12/04 07:46:01;;;;;;;2.17;2.08;;;;;;;21.77;31.68;98568.92;1887881;75;28079;-57
2021/12/04 07:48:49;;;;;;;2.03;1.93;;;;;;;21.80;31.67;98563.45;1883142;75;28121;-55
2021/12/04 07:51:40;;;;;;;1.50;1.50;;;;;;;21.81;31.77;98559.13;1871170;75;28091;-57
2021/12/04 07:54:28;;;;;;;2.77;1.50;;;;;;;21.85;31.86;98571.23;1878914;75;28036;-52
2021/12/04 07:57:20;;;;;;;1.67;1.60;;;;;;;21.89;31.97;98554.61;1879811;75;28139;-55
2021/12/04 08:00:12;;;;;;;1.60;1.50;;;;;;;21.94;32.01;98556.58;1885368;75;28068;-54
2021/12/04 08:03:03;;;;;;;1.37;1.37;;;;;;;21.96;32.11;98555.25;1869752;75;28121;-52
2021/12/04 08:05:53;;;;;;;1.47;1.37;;;;;;;21.95;32.16;98544.58;1861680;74;28165;-56
2021/12/04 08:08:43;;;;;;;1.25;1.25;;;;;;;21.99;32.24;98555.29;1880685;75;28100;-55
2021/12/04 08:11:31;;;;;;;1.10;1.10;;;;;;;22.01;32.32;98553.95;1888932;75;28070;-55
2021/12/04 08:14:20;;;;;;;2.00;1.20;;;;;;;22.01;32.35;98538.91;1869090;75;28125;-54
2021/12/04 08:17:08;;;;;;;1.42;1.27;;;;;;;22.06;32.38;98537.32;1890962;75;28117;-53
2021/12/04 08:19:57;;;;;;;1.40;1.20;;;;;;;22.08;32.43;98533.81;1870446;75;28091;-55
2021/12/04 08:22:46;;;;;;;1.27;1.27;;;;;;;22.10;32.48;98534.38;1873163;75;28017;-52
2021/12/04 08:25:35;;;;;;;1.45;1.35;;;;;;;22.10;32.55;98535.75;1883914;75;28102;-54
2021/12/04 08:28:24;;;;;;;1.30;1.30;;;;;;;22.08;32.65;98520.14;1882920;75;28095;-53
2021/12/04 08:31:14;;;;;;;1.10;1.10;;;;;;;22.09;32.72;98517.67;1866618;75;28063;-53
2021/12/04 08:34:04;;;;;;;1.37;1.30;;;;;;;22.11;32.77;98512.77;1891698;75;28057;-53
2021/12/04 08:36:53;;;;;;;1.30;1.30;;;;;;;22.10;32.86;98511.94;1882453;73;28116;-52
2021/12/04 08:39:42;;;;;;;1.10;1.10;;;;;;;22.14;32.88;98508.17;1876975;75;28149;-52
2021/12/04 08:42:30;;;;;;;1.20;1.20;;;;;;;22.15;32.96;98501.06;1865635;75;28243;-50
2021/12/04 08:45:19;;;;;;;1.05;1.05;;;;;;;22.18;32.96;98502.47;1874372;75;28111;-53
2021/12/04 08:48:10;;;;;;;1.35;1.10;;;;;;;22.16;33.03;98499.16;1869140;75;28161;-54
2021/12/04 08:51:01;;;;;;;1.32;1.27;;;;;;;22.15;33.10;98501.63;1876898;75;28039;-50
2021/12/04 08:53:51;;;;;;;1.12;1.10;;;;;;;22.14;33.13;98496.70;1867105;75;28218;-51
2021/12/04 08:56:40;;;;;;;1.00;1.00;;;;;;;22.15;33.19;98489.33;1900319;75;28022;-49
2021/12/04 08:59:29;;;;;;;1.30;1.20;;;;;;;22.17;33.19;98493.42;1880312;75;28244;-52
2021/12/04 09:02:18;;;;;;;1.23;1.20;;;;;;;22.18;33.25;98483.32;1890286;75;28100;-51
2021/12/04 09:05:11;;;;;;;2.98;1.20;;;;;;;22.20;33.26;98474.31;1875582;75;28040;-54
2021/12/04 09:07:59;;;;;;;1.20;1.20;;;;;;;22.21;33.28;98480.08;1887586;75;31090;-53
2021/12/04 09:10:49;;;;;;;1.27;1.22;;;;;;;22.21;33.40;98476.81;1862871;75;28057;-54
2021/12/04 09:13:38;;;;;;;1.32;1.22;;;;;;;22.19;33.51;98466.67;1881490;75;28010;-54
2021/12/04 09:16:27;;;;;;;1.40;1.40;;;;;;;22.19;33.54;98475.41;1872367;75;28588;-53
2021/12/04 09:19:15;;;;;;;1.50;1.40;;;;;;;22.20;33.53;98462.84;1878493;75;28135;-50
2021/12/04 09:22:07;;;;;;;4.03;1.40;;;;;;;22.19;33.99;98467.20;1885487;75;28189;-53
2021/12/04 09:24:59;;;;;;;2.17;1.55;;;;;;;22.17;34.37;98460.61;1862395;75;28238;-55
2021/12/04 09:31:28;;;;;;;2.22;1.70;;;;;;;22.17;34.72;98446.13;1884783;75;28091;-52
2021/12/04 09:34:15;;;;;;;2.25;1.47;;;;;;;22.12;34.97;98441.42;1899911;75;28114;-52
2021/12/04 10:11:39;;;;;;;4.67;2.25;;;;;;;22.07;36.21;98417.29;1882120;75;28231;-52
2021/12/04 10:20:38;;;;;;;3.58;2.27;;;;;;;22.08;36.20;98397.88;1879487;75;28192;-57
2021/12/04 10:32:55;;;;;;;3.83;2.70;;;;;;;22.08;36.25;98387.50;1869491;75;28170;-57
2021/12/04 10:35:38;;;;;;;3.30;2.70;;;;;;;22.09;36.26;98385.03;1868791;76;28154;-56
2021/12/04 10:38:31;;;;;;;3.90;2.87;;;;;;;22.07;36.21;98388.04;1878786;75;28084;-54
2021/12/04 10:41:18;;;;;;;3.17;2.62;;;;;;;22.07;36.22;98374.91;1891751;75;28130;-54
2021/12/04 10:44:25;;;;;;;4.08;3.00;;;;;;;22.09;36.21;98380.94;1878787;75;28025;-54
2021/12/04 10:47:21;;;;;;;4.10;3.02;;;;;;;22.11;36.15;98386.97;1879243;75;28134;-55
2021/12/04 10:53:05;;;;;;;3.45;2.83;;;;;;;22.11;36.07;98375.49;1883544;75;28039;-55
2021/12/04 10:56:21;;;;;;;3.65;3.05;;;;;;;22.11;36.10;98369.19;1893038;75;28173;-55
2021/12/04 11:02:19;;;;;;;5.60;3.05;;;;;;;22.10;36.13;98364.83;1877646;75;28161;-55
2021/12/04 11:05:14;;;;;;;3.22;2.90;;;;;;;22.10;36.15;98359.35;1868952;75;28227;-54
2021/12/04 11:18:35;;;;;;;3.53;2.80;;;;;;;22.11;36.07;98363.72;1869142;76;28200;-53
2021/12/04 11:26:26;;;;;;;5.15;2.95;;;;;;;22.03;36.13;98334.13;1878499;75;28152;-56
2021/12/04 11:38:25;;;;;;;3.27;2.80;;;;;;;22.04;36.03;98333.85;1880167;75;28531;-56
2021/12/04 11:41:16;;;;;;;3.43;2.90;;;;;;;21.98;36.02;98320.66;1893670;75;28234;-54
2021/12/04 11:44:14;;;;;;;3.02;2.83;;;;;;;22.01;36.05;98321.52;1872149;75;28199;-53
2021/12/04 11:47:01;;;;;;;3.27;2.80;;;;;;;22.03;35.97;98328.12;1879900;75;28207;-56
2021/12/04 11:49:50;;;;;;;3.60;2.80;;;;;;;22.01;35.93;98328.89;1872744;75;28065;-55
2021/12/04 11:52:41;;;;;;;2.87;2.67;;;;;;;22.03;35.92;98328.66;1891627;75;28203;-54
2021/12/04 11:55:32;;;;;;;5.05;2.85;;;;;;;22.05;35.83;98316.37;1873363;75;28134;-56
2021/12/04 11:58:31;;;;;;;3.22;2.98;;;;;;;22.01;35.84;98317.42;1880621;75;28140;-56
2021/12/04 12:01:28;;;;;;;2.87;2.67;;;;;;;22.03;35.88;98305.41;1886794;75;28043;-54
2021/12/04 12:04:15;;;;;;;3.75;2.83;;;;;;;22.00;35.86;98321.26;1869039;76;28117;-55
2021/12/04 12:07:13;;;;;;;3.02;2.55;;;;;;;22.00;35.81;98321.26;1896156;75;28146;-55
2021/12/04 12:10:13;;;;;;;2.83;2.62;;;;;;;21.99;35.84;98307.29;1895085;75;28136;-59
2021/12/04 12:13:06;;;;;;;3.20;2.90;;;;;;;22.01;35.82;98310.58;1879803;75;28117;-55
2021/12/04 12:16:03;;;;;;;3.75;2.80;;;;;;;22.03;35.78;98298.84;1884022;75;28140;-54
2021/12/04 12:18:58;;;;;;;3.50;2.60;;;;;;;21.99;35.75;98300.45;1875266;75;28154;-55
2021/12/04 12:22:11;;;;;;;3.00;2.80;;;;;;;21.99;35.82;98296.35;1878672;75;28502;-56
2021/12/04 12:25:06;;;;;;;2.80;2.50;;;;;;;21.96;35.78;98285.13;1879476;75;28180;-57
2021/12/04 12:27:57;;;;;;;3.30;2.90;;;;;;;21.96;35.76;98279.09;1879974;75;28150;-57
2021/12/04 12:36:53;;;;;;;3.05;2.70;;;;;;;21.91;35.80;98278.23;1884989;75;28033;-55
2021/12/04 12:39:56;;;;;;;2.72;2.52;;;;;;;21.93;35.77;98274.70;1901629;75;28092;-56
2021/12/04 12:42:45;;;;;;;3.30;2.77;;;;;;;21.93;35.76;98279.63;1872422;75;28111;-54
2021/12/04 12:45:35;;;;;;;3.30;2.58;;;;;;;21.97;35.73;98272.55;1870448;75;28162;-54
2021/12/04 12:48:24;;;;;;;2.58;2.40;;;;;;;21.97;35.70;98272.55;1890733;75;28171;-55
2021/12/04 12:51:13;;;;;;;3.52;2.50;;;;;;;21.97;35.68;98261.61;1901304;75;28125;-56
2021/12/04 12:54:04;;;;;;;2.65;2.47;;;;;;;21.94;35.67;98259.39;1880064;75;28071;-58
2021/12/04 12:57:01;;;;;;;2.67;2.45;;;;;;;21.91;35.74;98263.20;1879980;74;28136;-58
2021/12/04 13:21:36;;;;;;;2.60;2.45;;;;;;;21.77;36.38;98246.38;1896856;74;28083;-61
2021/12/04 13:24:27;;;;;;;2.72;2.35;;;;;;;21.74;36.46;98263.28;1867749;76;28219;-62
2021/12/04 13:30:13;;;;;;;3.27;2.30;;;;;;;21.68;36.60;98271.69;1825223;77;28156;-64
2021/12/04 13:33:04;;;;;;;2.60;2.40;;;;;;;21.65;36.73;98282.59;1813709;77;28348;-64
2021/12/04 13:35:53;;;;;;;2.47;2.27;;;;;;;21.62;36.86;98268.61;1814397;77;28214;-64
2021/12/04 13:38:42;;;;;;;2.30;2.10;;;;;;;21.66;36.91;98266.47;1866858;76;28150;-65
2021/12/04 13:41:31;;;;;;;2.83;2.62;;;;;;;21.66;36.91;98251.43;1869173;76;28157;-65
2021/12/04 13:44:22;;;;;;;2.67;2.47;;;;;;;21.68;36.91;98257.46;1869162;76;28128;-65
2021/12/04 13:47:12;;;;;;;2.20;2.10;;;;;;;21.68;36.97;98241.06;1851912;76;28510;-65
2021/12/04 13:50:06;;;;;;;2.87;2.20;;;;;;;21.68;37.02;98252.56;1816094;77;28888;-62
2021/12/04 13:52:51;;;;;;;3.55;2.40;;;;;;;21.72;37.01;98244.12;1842741;76;28237;-63
2021/12/04 13:55:42;;;;;;;2.80;2.58;;;;;;;21.69;37.08;98233.16;1865260;76;28223;-65
2021/12/04 13:58:31;;;;;;;2.47;2.25;;;;;;;21.68;37.08;98241.06;1862349;76;28142;-65
2021/12/04 14:01:22;;;;;;;2.62;2.27;;;;;;;21.70;37.12;98229.89;1840921;74;28302;-65
2021/12/04 14:04:16;;;;;;;2.20;2.10;;;;;;;21.69;37.12;98226.33;1869029;76;28206;-65
2021/12/04 14:07:05;;;;;;;2.40;2.20;;;;;;;21.69;37.15;98226.86;1868584;76;28160;-65
2021/12/04 14:09:54;;;;;;;2.55;2.00;;;;;;;21.69;37.23;98206.36;1858586;75;28168;-64
2021/12/04 14:12:42;;;;;;;2.50;2.30;;;;;;;21.71;37.23;98209.13;1840867;75;28346;-64
2021/12/04 14:15:32;;;;;;;2.30;2.10;;;;;;;21.73;37.24;98199.28;1824606;77;28222;-64
2021/12/04 14:18:22;;;;;;;2.50;2.30;;;;;;;21.72;37.29;98205.32;1855691;76;28168;-65
2021/12/04 14:21:29;;;;;;;2.20;2.00;;;;;;;21.74;37.33;98214.08;1849169;76;28199;-63
2021/12/04 14:24:30;;;;;;;2.37;2.20;;;;;;;21.78;37.39;98210.27;1818941;78;28200;-58
2021/12/04 14:27:28;;;;;;;2.22;2.12;;;;;;;21.84;37.39;98210.64;1792279;78;28349;-55
2021/12/04 14:30:19;;;;;;;3.05;2.35;;;;;;;21.94;37.38;98212.08;1812201;78;28253;-57
2021/12/04 14:33:09;;;;;;;2.25;2.05;;;;;;;21.98;37.38;98211.30;1795076;78;28250;-56
2021/12/04 14:35:58;;;;;;;2.70;2.20;;;;;;;22.03;37.37;98201.50;1807136;78;28247;-56
2021/12/04 14:38:47;;;;;;;2.10;2.00;;;;;;;22.08;37.30;98191.97;1801514;78;28204;-59
2021/12/04 14:41:35;;;;;;;2.25;2.08;;;;;;;22.15;37.24;98193.38;1802213;78;28467;-56
2021/12/04 14:44:24;;;;;;;2.20;2.00;;;;;;;22.16;37.25;98190.10;1807937;78;28218;-59
2021/12/04 14:47:13;;;;;;;3.30;2.22;;;;;;;22.21;37.25;98195.61;1787746;77;28455;-59
2021/12/04 14:50:03;;;;;;;2.40;2.20;;;;;;;22.22;37.19;98195.34;1801216;79;28471;-57
2021/12/04 14:52:55;;;;;;;2.58;2.12;;;;;;;22.30;37.16;98192.66;1801672;79;28381;-58
2021/12/04 14:55:46;;;;;;;6.70;2.20;;;;;;;22.30;37.11;98185.28;1805885;79;28818;-57
2021/12/04 14:58:36;;;;;;;2.30;2.05;;;;;;;22.34;37.09;98203.34;1830848;78;28257;-58
2021/12/04 15:01:27;;;;;;;2.30;2.20;;;;;;;22.35;37.11;98200.91;1861245;76;28160;-59
2021/12/04 15:04:16;;;;;;;4.20;2.10;;;;;;;22.38;37.08;98199.02;1867854;76;28180;-60
2021/12/04 15:07:05;;;;;;;2.80;2.10;;;;;;;22.41;37.11;98176.58;1868882;76;28153;-59
2021/12/04 15:09:54;;;;;;;2.55;2.20;;;;;;;22.41;37.14;98188.89;1851690;76;32107;-58
2021/12/04 15:12:43;;;;;;;4.35;2.10;;;;;;;22.42;37.16;98198.76;1856164;77;28193;-58
2021/12/04 15:15:34;;;;;;;2.62;2.33;;;;;;;22.45;37.14;98197.67;1840604;76;28300;-57
2021/12/04 15:18:25;;;;;;;2.27;2.10;;;;;;;22.46;37.13;98199.87;1856596;77;28118;-59
2021/12/04 15:21:17;;;;;;;2.50;2.30;;;;;;;22.46;37.19;98194.39;1793798;78;28269;-60
2021/12/04 15:24:07;;;;;;;2.47;2.27;;;;;;;22.46;37.24;98191.12;1866911;76;28121;-57
2021/12/04 15:26:58;;;;;;;2.40;2.20;;;;;;;22.47;37.25;98186.48;1809628;77;28272;-59
2021/12/04 15:29:50;;;;;;;4.50;2.17;;;;;;;22.49;37.24;98176.09;1823341;77;28187;-59
2021/12/04 15:32:40;;;;;;;3.20;2.20;;;;;;;22.49;37.28;98170.08;1818578;77;28244;-59
2021/12/04 15:35:33;;;;;;;2.75;2.02;;;;;;;22.48;37.30;98150.63;1812867;77;30139;-59
2021/12/04 15:38:39;;;;;;;2.67;2.05;;;;;;;22.49;37.34;98161.87;1871542;74;28124;-59
2021/12/04 15:50:45;;;;;;;2.40;1.92;;;;;;;22.50;37.49;98160.76;1837787;77;28262;-60
2021/12/04 15:53:15;;;;;;;2.45;2.05;;;;;;;22.50;37.52;98173.08;1866535;76;28217;-58
2021/12/04 15:56:04;;;;;;;2.50;2.30;;;;;;;22.50;37.60;98184.56;1868535;76;28157;-57
2021/12/04 15:58:53;;;;;;;2.05;1.85;;;;;;;22.52;37.61;98191.98;1868407;76;28234;-60
2021/12/04 16:01:41;;;;;;;2.87;2.17;;;;;;;22.50;37.67;98177.18;1814221;76;28187;-61
2021/12/04 16:04:33;;;;;;;2.92;2.00;;;;;;;22.50;37.70;98174.98;1860958;76;28231;-58
2021/12/04 16:07:28;;;;;;;2.55;2.00;;;;;;;22.54;37.63;98184.33;1861200;76;28117;-59
2021/12/04 16:10:37;;;;;;;2.33;1.98;;;;;;;22.54;37.69;98192.54;1867682;76;28168;-62
2021/12/04 16:13:32;;;;;;;3.40;2.00;;;;;;;22.52;37.75;98191.98;1867978;76;28307;-60
2021/12/04 16:16:26;;;;;;;2.13;2.00;;;;;;;22.52;37.76;98200.20;1864685;76;28240;-60
2021/12/04 16:19:14;;;;;;;4.25;2.12;;;;;;;22.54;37.83;98203.48;1818551;76;28126;-62
2021/12/04 16:22:08;;;;;;;2.40;2.20;;;;;;;22.55;37.87;98201.02;1869119;74;28165;-61
2021/12/04 16:24:58;;;;;;;2.58;2.10;;;;;;;22.55;37.90;98211.42;1877785;76;28171;-61
2021/12/04 16:27:58;;;;;;;2.70;2.02;;;;;;;22.57;37.87;98207.04;1860228;76;28240;-60
2021/12/04 16:36:44;;;;;;;2.70;2.50;;;;;;;22.57;37.88;98207.87;1835861;77;28253;-63
2021/12/04 16:39:30;;;;;;;4.30;2.30;;;;;;;22.49;37.81;98212.49;1833441;76;28301;-63